Time;durP1;ratioP1;P1;durP2;ratioP2;P2;SDS_P1;SDS_P2;PMS_P1;PMS_P2;Temp;Humidity;BMP_temperature;BMP_pressure;BME280_temperature;BME280_humidity;BME280_pressure;Samples;Min_cycle;Max_cycle;Signal;HPM_P1;HPM_P2
2023/04/04 00:00:43;;;;;;;2.75;1.70;;;;;;;-0.32;76.03;100877.31;12209315;19;20006;-79
2023/04/04 00:04:47;;;;;;;5.18;2.13;;;;;;;-0.34;77.05;100868.47;12207931;19;20003;-78
2023/04/04 00:08:50;;;;;;;3.65;1.92;;;;;;;-0.30;75.85;100872.56;12185517;19;20016;-79
2023/04/04 00:12:52;;;;;;;4.53;1.63;;;;;;;-0.29;77.35;100864.31;12207505;19;20035;-80
2023/04/04 00:16:53;;;;;;;3.30;1.65;;;;;;;-0.34;77.12;100863.06;12204859;19;20026;-79
2023/04/04 00:20:55;;;;;;;5.53;2.00;;;;;;;-0.41;77.59;100861.97;12184538;19;20019;-78
2023/04/04 00:24:57;;;;;;;4.57;1.95;;;;;;;-0.46;78.27;100860.56;12203161;19;20031;-79
2023/04/04 00:28:59;;;;;;;3.05;1.75;;;;;;;-0.47;77.98;100853.44;12204742;19;20023;-79
2023/04/04 00:33:02;;;;;;;6.15;1.90;;;;;;;-0.49;77.49;100850.03;12180991;19;20486;-78
2023/04/04 00:37:06;;;;;;;4.00;1.83;;;;;;;-0.48;77.13;100840.94;12202656;19;20015;-78
2023/04/04 00:41:08;;;;;;;4.70;2.05;;;;;;;-0.41;76.95;100845.72;12202252;19;20460;-79
2023/04/04 00:45:10;;;;;;;4.30;1.70;;;;;;;-0.40;75.41;100844.72;12181272;19;20031;-78
2023/04/04 00:49:12;;;;;;;6.18;1.73;;;;;;;-0.44;75.78;100846.03;12201998;19;21140;-79
2023/04/04 00:53:13;;;;;;;3.72;1.50;;;;;;;-0.45;76.43;100839.75;12202952;19;20078;-79
2023/04/04 00:57:16;;;;;;;4.53;1.90;;;;;;;-0.51;76.67;100835.78;12179748;19;20006;-78
2023/04/04 01:01:18;;;;;;;4.85;1.63;;;;;;;-0.55;77.06;100845.22;12203291;19;20035;-78
2023/04/04 01:05:20;;;;;;;;;;;;;;;-0.60;78.21;100846.69;12197983;19;20029;-78
2023/04/04 01:09:22;;;;;;;3.42;1.95;;;;;;;-0.69;78.40;100841.16;12182110;19;19922;-78
2023/04/04 01:13:25;;;;;;;2.95;1.80;;;;;;;-0.76;78.45;100841.94;12201522;19;20039;-79
2023/04/04 01:17:28;;;;;;;4.07;2.65;;;;;;;-0.81;78.58;100834.28;12201867;19;20078;-79
2023/04/04 01:21:30;;;;;;;3.40;2.00;;;;;;;-0.84;78.82;100834.56;12179344;19;20032;-78
2023/04/04 01:25:33;;;;;;;3.28;1.80;;;;;;;-0.86;79.71;100822.19;12202170;19;20006;-78
2023/04/04 01:29:43;;;;;;;4.90;1.95;;;;;;;-0.93;81.30;100820.09;12188176;19;20014;-78
2023/04/04 01:34:03;;;;;;;3.33;1.80;;;;;;;-0.98;81.63;100822.41;12251113;19;19995;-78
2023/04/04 01:38:31;;;;;;;2.78;1.90;;;;;;;-0.99;82.48;100819.84;12204841;19;20003;-78
2023/04/04 01:42:33;;;;;;;6.22;2.05;;;;;;;-1.04;81.69;100817.59;12180486;19;20011;-78
2023/04/04 01:46:35;;;;;;;2.80;1.55;;;;;;;-1.09;82.35;100811.78;12197691;19;20489;-78
2023/04/04 01:50:38;;;;;;;3.97;1.70;;;;;;;-1.12;83.88;100816.66;12177328;19;20007;-78
2023/04/04 01:54:41;;;;;;;4.32;2.13;;;;;;;-1.15;83.42;100820.50;12199741;19;20002;-79
2023/04/04 01:58:43;;;;;;;2.87;1.70;;;;;;;-1.18;82.98;100818.09;12199947;19;20007;-78
2023/04/04 02:02:45;;;;;;;3.45;2.20;;;;;;;-1.19;82.98;100814.53;12178677;19;20232;-79
2023/04/04 02:06:49;;;;;;;4.30;2.20;;;;;;;-1.22;84.10;100819.38;12199381;19;20019;-79
2023/04/04 02:10:51;;;;;;;;;;;;;;;-1.23;84.66;100813.13;12207819;19;20007;-79
2023/04/04 02:14:53;;;;;;;3.70;1.75;;;;;;;-1.20;85.86;100809.28;12184154;19;19946;-80
2023/04/04 02:18:55;;;;;;;3.35;2.00;;;;;;;-1.22;84.88;100817.56;12201335;19;20002;-79
2023/04/04 02:22:57;;;;;;;2.97;2.13;;;;;;;-1.23;83.95;100817.69;12218236;19;20018;-79
2023/04/04 02:26:59;;;;;;;5.22;1.90;;;;;;;-1.27;83.70;100819.84;12214943;19;20080;-78
2023/04/04 02:31:01;;;;;;;3.70;1.50;;;;;;;-1.26;83.95;100820.69;12210607;19;20022;-80
2023/04/04 02:35:03;;;;;;;2.60;1.70;;;;;;;-1.25;84.01;100822.38;12212286;19;20011;-79
2023/04/04 02:39:05;;;;;;;3.50;1.70;;;;;;;-1.23;85.32;100807.72;12194017;19;20032;-79
2023/04/04 02:43:07;;;;;;;3.85;1.40;;;;;;;-1.27;84.91;100810.88;12225529;19;20007;-79
2023/04/04 02:47:10;;;;;;;2.75;1.77;;;;;;;-1.28;84.98;100809.16;12235250;19;20023;-79
2023/04/04 02:51:11;;;;;;;2.30;1.80;;;;;;;-1.29;84.86;100812.88;12205117;19;21732;-79
2023/04/04 02:55:13;;;;;;;3.72;1.60;;;;;;;-1.32;84.10;100795.09;12210931;19;20320;-79
2023/04/04 02:59:16;;;;;;;2.70;1.75;;;;;;;-1.33;84.54;100798.81;12213166;19;20070;-78
2023/04/04 03:03:18;;;;;;;3.08;2.10;;;;;;;-1.31;85.51;100798.63;12189336;19;20048;-79
2023/04/04 03:07:21;;;;;;;8.20;2.92;;;;;;;-1.31;85.13;100795.94;12208106;19;20020;-79
2023/04/04 03:11:26;;;;;;;4.65;2.25;;;;;;;-1.33;84.31;100800.66;12208537;19;20095;-79
2023/04/04 03:15:29;;;;;;;2.45;1.80;;;;;;;-1.34;83.97;100805.19;12187870;19;20005;-79
2023/04/04 03:19:32;;;;;;;3.60;1.90;;;;;;;-1.33;85.46;100795.25;12210613;19;20016;-79
2023/04/04 03:23:34;;;;;;;4.27;2.30;;;;;;;-1.38;85.40;100796.53;12189349;19;20676;-79
2023/04/04 03:27:36;;;;;;;3.10;1.27;;;;;;;-1.36;86.70;100795.56;12210441;19;20015;-80
2023/04/04 03:31:38;;;;;;;4.32;2.10;;;;;;;-1.36;84.59;100798.25;12211542;19;21244;-80
2023/04/04 03:35:40;;;;;;;4.63;2.13;;;;;;;-1.38;84.76;100795.69;12193162;19;20006;-79
2023/04/04 03:39:42;;;;;;;;;;;;;;;-1.41;85.68;100795.97;12224920;19;20353;-79
2023/04/04 03:43:44;;;;;;;3.97;1.88;;;;;;;-1.43;86.16;100789.84;12270094;19;19914;-78
2023/04/04 03:47:46;;;;;;;3.58;2.13;;;;;;;-1.47;86.43;100786.59;12246591;19;20012;-78
2023/04/04 03:51:47;;;;;;;5.40;2.28;;;;;;;-1.50;86.32;100789.59;12219936;19;22636;-79
2023/04/04 03:55:50;;;;;;;5.68;2.10;;;;;;;-1.50;87.00;100784.19;12208522;19;20590;-79
2023/04/04 03:59:53;;;;;;;4.38;2.40;;;;;;;-1.50;86.31;100792.31;12184670;19;20054;-79
2023/04/04 04:03:56;;;;;;;6.18;1.80;;;;;;;-1.54;86.53;100790.06;12203586;19;20010;-80
2023/04/04 04:07:58;;;;;;;3.75;2.05;;;;;;;-1.58;86.74;100794.88;12204038;19;20070;-80
2023/04/04 04:12:00;;;;;;;3.20;1.80;;;;;;;-1.59;86.64;100785.09;12186326;19;20006;-80
2023/04/04 04:16:02;;;;;;;3.87;2.23;;;;;;;-1.65;87.87;100791.09;12210182;19;20091;-80
2023/04/04 04:20:06;;;;;;;4.00;2.25;;;;;;;-1.69;88.61;100779.72;12211066;19;20014;-81
2023/04/04 04:24:12;;;;;;;3.75;1.98;;;;;;;-1.72;87.89;100785.44;12206378;19;20046;-78
2023/04/04 04:28:14;;;;;;;8.50;2.30;;;;;;;-1.72;88.11;100790.81;12203750;19;20722;-79
2023/04/04 04:32:18;;;;;;;3.00;2.08;;;;;;;-1.71;88.71;100787.13;12203718;19;20013;-79
2023/04/04 04:36:23;;;;;;;3.22;2.17;;;;;;;-1.73;88.70;100791.81;12178896;19;20023;-80
2023/04/04 04:40:44;;;;;;;4.38;2.30;;;;;;;-1.73;88.52;100782.84;12202266;19;20518;-80
2023/04/04 04:44:53;;;;;;;5.00;2.30;;;;;;;-1.71;89.00;100789.81;12179379;19;20022;-81
2023/04/04 04:48:56;;;;;;;4.50;2.30;;;;;;;-1.72;88.94;100785.44;12201645;19;20011;-80
2023/04/04 04:53:02;;;;;;;5.75;2.55;;;;;;;-1.73;88.92;100790.97;12196763;19;20014;-79
2023/04/04 04:57:05;;;;;;;4.45;2.20;;;;;;;-1.75;88.52;100782.16;12177350;19;20340;-79
2023/04/04 05:01:08;;;;;;;7.22;2.00;;;;;;;-1.76;88.51;100788.53;12203707;19;20377;-80
2023/04/04 05:05:14;;;;;;;5.25;2.28;;;;;;;-1.75;88.37;100791.13;12197232;19;20006;-80
2023/04/04 05:09:17;;;;;;;2.95;1.77;;;;;;;-1.74;88.43;100797.38;12178557;19;20027;-80
2023/04/04 05:13:22;;;;;;;4.50;1.92;;;;;;;-1.70;87.74;100802.31;12198890;19;20002;-80
2023/04/04 05:17:24;;;;;;;4.50;2.33;;;;;;;-1.65;88.14;100800.03;12197170;19;20452;-79
2023/04/04 05:21:30;;;;;;;5.00;2.10;;;;;;;-1.59;88.74;100800.47;12175606;19;20059;-80
2023/04/04 05:25:37;;;;;;;6.10;2.28;;;;;;;-1.56;88.78;100795.59;12195734;19;20010;-79
2023/04/04 05:29:39;;;;;;;7.20;3.07;;;;;;;-1.50;88.59;100800.41;12180503;19;20066;-80
2023/04/04 05:33:41;;;;;;;3.45;2.03;;;;;;;-1.46;87.90;100796.44;12200427;19;20018;-79
2023/04/04 05:37:53;;;;;;;4.63;2.30;;;;;;;-1.39;88.29;100810.22;12192482;19;20614;-81
2023/04/04 05:41:58;;;;;;;3.33;1.60;;;;;;;-1.34;88.33;100805.19;12177012;19;20003;-78
2023/04/04 05:46:03;;;;;;;3.90;2.08;;;;;;;-1.28;88.09;100793.81;12199043;19;20013;-79
2023/04/04 05:50:11;;;;;;;5.78;2.28;;;;;;;-1.22;87.24;100792.34;12198735;19;20995;-80
2023/04/04 05:54:13;;;;;;;3.10;1.73;;;;;;;-1.16;86.95;100797.13;12175684;19;20107;-80
2023/04/04 05:58:17;;;;;;;5.30;2.00;;;;;;;-1.06;87.18;100791.72;12199390;19;20098;-80
2023/04/04 06:02:26;;;;;;;3.45;1.80;;;;;;;-1.02;87.08;100795.81;12203007;19;20006;-80
2023/04/04 06:06:34;;;;;;;3.17;1.95;;;;;;;-0.94;86.58;100799.47;12180226;19;20590;-80
2023/04/04 06:10:39;;;;;;;4.28;2.30;;;;;;;-0.83;85.78;100802.94;12216100;19;20014;-79
2023/04/04 06:14:42;;;;;;;3.30;1.80;;;;;;;-0.73;85.88;100807.31;12189727;19;20010;-80
2023/04/04 06:18:44;;;;;;;3.92;2.00;;;;;;;-0.64;84.29;100810.97;12214807;19;20007;-80
2023/04/04 06:22:46;;;;;;;3.22;1.75;;;;;;;-0.53;83.94;100813.44;12210669;19;20035;-80
2023/04/04 06:26:51;;;;;;;7.30;2.25;;;;;;;-0.37;84.25;100820.03;12184783;19;20015;-79
2023/04/04 06:30:58;;;;;;;2.50;1.58;;;;;;;-0.25;82.70;100814.22;12207956;19;21538;-79
2023/04/04 06:35:05;;;;;;;2.95;1.73;;;;;;;-0.11;82.67;100811.97;12207332;19;20035;-80
2023/04/04 06:39:30;;;;;;;3.45;2.13;;;;;;;0.04;80.41;100815.84;12190258;19;20110;-80
2023/04/04 06:43:34;;;;;;;3.05;1.73;;;;;;;0.22;78.66;100821.22;12209453;19;20518;-79
2023/04/04 06:47:38;;;;;;;5.00;2.00;;;;;;;0.39;78.49;100820.34;12192045;19;20003;-79
2023/04/04 06:51:40;;;;;;;4.82;1.80;;;;;;;0.56;77.44;100820.44;12209726;19;20066;-79
2023/04/04 06:55:42;;;;;;;3.72;1.63;;;;;;;0.78;76.65;100828.03;12209778;19;20007;-79
2023/04/04 06:59:44;;;;;;;5.57;1.70;;;;;;;0.99;75.63;100834.91;12195220;19;20062;-78
2023/04/04 07:03:46;;;;;;;3.70;1.48;;;;;;;1.17;73.27;100832.97;12237668;19;20016;-78
2023/04/04 07:07:53;;;;;;;4.82;1.73;;;;;;;1.36;71.02;100829.94;12224028;19;20042;-79
2023/04/04 07:11:55;;;;;;;3.65;1.85;;;;;;;1.59;70.20;100830.19;12171150;19;20015;-79
2023/04/04 07:15:57;;;;;;;13.80;5.23;;;;;;;1.77;68.72;100830.06;12219395;19;20003;-78
2023/04/04 07:19:58;;;;;;;16.65;6.18;;;;;;;2.03;67.23;100834.50;12219732;19;20014;-78
2023/04/04 07:24:02;;;;;;;5.07;2.60;;;;;;;2.17;64.53;100835.69;12195948;19;19998;-78
2023/04/04 07:28:04;;;;;;;8.45;4.25;;;;;;;2.35;64.46;100844.53;12231728;19;20010;-77
2023/04/04 07:32:14;;;;;;;6.35;2.33;;;;;;;2.44;63.00;100842.63;12245308;19;20010;-78
2023/04/04 07:36:15;;;;;;;3.40;1.83;;;;;;;2.59;62.74;100824.59;12218741;19;20018;-78
2023/04/04 07:40:17;;;;;;;3.33;1.50;;;;;;;2.76;60.99;100830.00;12246013;19;20006;-78
2023/04/04 07:44:19;;;;;;;5.63;2.00;;;;;;;2.99;62.11;100824.66;12243031;19;20126;-77
2023/04/04 07:48:21;;;;;;;2.75;2.20;;;;;;;3.19;60.85;100821.34;12200701;19;20013;-79
2023/04/04 07:52:23;;;;;;;3.40;1.70;;;;;;;3.42;59.77;100825.97;12217138;19;20025;-79
2023/04/04 07:56:25;;;;;;;4.72;1.98;;;;;;;3.62;58.58;100827.22;12212766;19;19999;-79
2023/04/04 08:00:27;;;;;;;5.05;1.73;;;;;;;3.86;58.36;100822.66;12193921;19;20454;-79
2023/04/04 08:04:29;;;;;;;6.88;2.10;;;;;;;3.84;56.40;100822.84;12213579;19;20007;-79
2023/04/04 08:08:31;;;;;;;4.35;2.10;;;;;;;3.96;56.50;100826.00;12211010;19;20337;-79
2023/04/04 08:12:33;;;;;;;2.83;1.63;;;;;;;4.17;55.65;100828.06;12210263;19;20491;-79
2023/04/04 08:16:34;;;;;;;4.07;1.80;;;;;;;4.40;55.03;100822.53;12213802;19;20030;-79
2023/04/04 08:20:40;;;;;;;4.65;2.00;;;;;;;4.48;53.24;100833.38;12190031;19;20038;-79
2023/04/04 08:24:43;;;;;;;2.80;1.50;;;;;;;4.67;53.31;100814.78;12209946;19;20014;-79
2023/04/04 08:28:45;;;;;;;4.07;1.50;;;;;;;4.82;52.14;100818.38;12214068;19;20030;-78
2023/04/04 08:32:47;;;;;;;2.42;1.60;;;;;;;4.85;50.98;100823.47;12188395;19;20003;-79
2023/04/04 08:36:52;;;;;;;4.45;2.15;;;;;;;4.88;50.55;100812.16;12205914;19;20019;-79
2023/04/04 08:40:54;;;;;;;4.47;2.27;;;;;;;5.02;50.03;100824.97;12211882;19;20051;-79
2023/04/04 08:44:58;;;;;;;4.03;1.85;;;;;;;5.31;50.40;100822.41;12192193;19;20266;-78
2023/04/04 08:49:02;;;;;;;4.10;1.80;;;;;;;5.35;48.85;100819.09;12208993;19;20043;-79
2023/04/04 08:53:06;;;;;;;3.55;1.60;;;;;;;5.55;49.85;100815.75;12205027;19;20007;-78
2023/04/04 08:57:10;;;;;;;4.65;1.70;;;;;;;5.78;48.18;100808.25;12195228;19;20014;-77
2023/04/04 09:01:12;;;;;;;4.63;2.17;;;;;;;5.67;46.78;100804.13;12250513;19;20007;-78
2023/04/04 09:05:15;;;;;;;3.53;1.88;;;;;;;5.86;47.61;100810.84;12244789;19;20250;-78
2023/04/04 09:09:18;;;;;;;2.92;1.80;;;;;;;6.15;47.65;100814.53;12236069;19;20019;-78
2023/04/04 09:13:22;;;;;;;6.72;2.00;;;;;;;5.99;45.77;100803.84;12248058;19;20023;-78
2023/04/04 09:17:24;;;;;;;3.30;1.90;;;;;;;5.71;46.28;100796.38;12254832;19;20002;-78
2023/04/04 09:21:31;;;;;;;4.22;2.05;;;;;;;6.02;46.58;100808.94;12238209;19;20013;-78
2023/04/04 09:25:34;;;;;;;6.40;1.85;;;;;;;6.29;46.38;100805.38;12263868;19;20035;-78
2023/04/04 09:29:37;;;;;;;;;;;;;;;6.36;45.48;100795.31;12241878;19;19994;-78
2023/04/04 09:33:39;;;;;;;4.13;2.03;;;;;;;6.42;44.55;100795.59;12217615;19;19917;-78
2023/04/04 09:37:41;;;;;;;3.83;1.65;;;;;;;6.58;43.58;100785.19;12214910;19;20015;-78
2023/04/04 09:41:44;;;;;;;2.60;1.38;;;;;;;6.94;44.03;100794.28;12189519;19;20005;-78
2023/04/04 09:45:46;;;;;;;4.45;2.00;;;;;;;7.17;43.86;100797.56;12214621;19;20010;-78
2023/04/04 09:49:49;;;;;;;4.10;1.93;;;;;;;7.34;43.67;100791.72;12216264;19;20031;-78
2023/04/04 09:53:51;;;;;;;4.82;1.92;;;;;;;7.53;43.64;100796.44;12182149;19;20086;-78
2023/04/04 09:57:53;;;;;;;6.20;1.95;;;;;;;7.54;42.52;100793.47;12216991;19;20018;-78
2023/04/04 10:01:55;;;;;;;3.80;1.77;;;;;;;7.54;42.31;100781.66;12215439;19;20021;-78
2023/04/04 10:06:04;;;;;;;2.80;1.50;;;;;;;7.61;41.27;100790.75;12188035;19;20059;-78
2023/04/04 10:10:09;;;;;;;5.68;1.60;;;;;;;7.93;42.29;100788.28;12209260;19;20973;-77
2023/04/04 10:14:11;;;;;;;2.45;1.40;;;;;;;8.03;40.05;100780.53;12204657;19;20034;-78
2023/04/04 10:18:14;;;;;;;3.80;1.47;;;;;;;7.97;40.37;100786.81;12196556;19;20030;-78
2023/04/04 10:22:19;;;;;;;2.63;1.25;;;;;;;8.05;39.59;100778.38;12215044;19;20014;-78
2023/04/04 10:26:21;;;;;;;4.10;1.20;;;;;;;8.05;40.40;100778.38;12204785;19;20034;-78
2023/04/04 10:30:23;;;;;;;5.40;1.48;;;;;;;8.26;39.98;100773.75;12184646;19;20042;-77
2023/04/04 10:34:38;;;;;;;3.28;1.48;;;;;;;8.35;38.59;100777.97;12197115;19;21051;-78
2023/04/04 10:38:43;;;;;;;2.92;1.73;;;;;;;8.48;38.57;100778.03;12180593;19;20003;-77
2023/04/04 10:42:46;;;;;;;3.95;1.40;;;;;;;8.54;39.02;100773.56;12200804;19;20006;-77
2023/04/04 10:46:52;;;;;;;3.08;1.60;;;;;;;8.62;37.99;100770.59;12200061;19;20462;-77
2023/04/04 10:50:55;;;;;;;2.80;1.55;;;;;;;8.62;38.04;100774.16;12187653;19;20007;-77
2023/04/04 10:55:00;;;;;;;3.83;1.67;;;;;;;8.81;38.16;100771.63;12212210;19;20094;-78
2023/04/04 10:59:12;;;;;;;3.60;1.80;;;;;;;8.99;36.97;100769.03;12223534;19;20015;-78
2023/04/04 11:03:15;;;;;;;4.78;1.67;;;;;;;8.96;36.96;100763.13;12184783;19;20506;-78
2023/04/04 11:07:17;;;;;;;3.25;1.30;;;;;;;9.01;37.00;100744.94;12206063;19;19999;-79
2023/04/04 11:11:24;;;;;;;3.33;1.75;;;;;;;9.30;37.36;100742.69;12208244;19;20014;-77
2023/04/04 11:15:26;;;;;;;2.20;1.55;;;;;;;9.30;35.72;100749.03;12180792;19;20127;-82
2023/04/04 11:19:29;;;;;;;3.28;1.48;;;;;;;8.99;36.37;100729.72;12213770;19;20011;-78
2023/04/04 11:23:57;;;;;;;3.17;1.50;;;;;;;9.21;35.68;100728.34;12186983;19;20026;-78
2023/04/04 11:28:07;;;;;;;3.53;1.65;;;;;;;9.50;36.55;100726.91;12204818;19;20024;-78
2023/04/04 11:32:28;;;;;;;3.70;1.58;;;;;;;9.57;34.86;100721.38;12206289;19;20014;-78
2023/04/04 11:36:51;;;;;;;3.80;1.60;;;;;;;9.78;35.93;100729.28;12198402;19;20002;-78
2023/04/04 11:40:54;;;;;;;4.90;1.70;;;;;;;9.85;35.72;100720.16;12238752;19;20006;-77
2023/04/04 11:44:58;;;;;;;3.30;1.40;;;;;;;10.03;35.03;100712.78;12210319;19;20107;-78
2023/04/04 11:49:02;;;;;;;3.28;1.73;;;;;;;10.39;34.35;100707.66;12213759;19;20013;-78
2023/04/04 11:53:08;;;;;;;3.92;1.70;;;;;;;11.08;33.74;100703.69;12203333;19;20480;-79
2023/04/04 11:57:13;;;;;;;3.17;1.55;;;;;;;11.27;34.37;100700.88;12183068;19;20006;-78
2023/04/04 12:01:15;;;;;;;4.80;1.83;;;;;;;12.25;33.91;100688.56;12200585;19;20011;-78
2023/04/04 12:05:17;;;;;;;3.65;1.70;;;;;;;12.48;32.63;100693.25;12201055;19;20020;-77
2023/04/04 12:09:24;;;;;;;2.92;1.90;;;;;;;12.68;32.73;100679.06;12184247;19;20010;-79
2023/04/04 12:13:30;;;;;;;5.38;1.83;;;;;;;13.04;32.38;100677.91;12198355;19;20018;-78
2023/04/04 12:17:33;;;;;;;3.78;1.77;;;;;;;13.77;32.02;100675.44;12189014;19;20126;-78
2023/04/04 12:21:35;;;;;;;2.92;1.70;;;;;;;14.06;29.91;100665.97;12201171;19;20839;-77
2023/04/04 12:25:38;;;;;;;3.95;1.73;;;;;;;14.09;28.67;100648.84;12192044;19;20777;-78
2023/04/04 12:29:44;;;;;;;3.42;1.58;;;;;;;14.45;28.92;100663.25;12179664;19;20019;-80
2023/04/04 12:33:46;;;;;;;3.25;1.80;;;;;;;14.61;29.51;100663.53;12200364;19;20021;-79
2023/04/04 12:37:59;;;;;;;;;;;;;;;14.94;28.80;100659.81;12201947;19;20025;-79
2023/04/04 12:42:02;;;;;;;3.53;1.77;;;;;;;15.69;28.11;100663.72;12183383;19;19970;-79
2023/04/04 12:46:07;;;;;;;3.13;1.85;;;;;;;16.21;27.02;100654.72;12205245;19;20007;-79
2023/04/04 12:50:21;;;;;;;3.90;2.10;;;;;;;16.42;26.49;100652.94;12206761;19;19998;-79
2023/04/04 12:54:28;;;;;;;3.92;2.00;;;;;;;16.55;26.03;100643.25;12180827;19;20022;-79
2023/04/04 12:58:30;;;;;;;3.80;1.50;;;;;;;17.30;26.44;100636.34;12204196;19;20018;-79
2023/04/04 13:02:36;;;;;;;4.13;2.13;;;;;;;17.63;25.66;100625.81;12182522;19;20010;-79
2023/04/04 13:06:39;;;;;;;2.88;1.80;;;;;;;18.04;25.36;100623.09;12201150;19;20006;-80
2023/04/04 13:10:55;;;;;;;3.42;1.67;;;;;;;17.71;23.75;100622.50;12204750;19;20472;-79
2023/04/04 13:15:03;;;;;;;3.47;1.88;;;;;;;17.91;25.09;100623.66;12179104;19;20062;-79
2023/04/04 13:19:06;;;;;;;5.97;1.90;;;;;;;18.22;24.25;100621.69;12200874;19;20007;-79
2023/04/04 13:23:14;;;;;;;3.90;1.63;;;;;;;18.97;25.04;100601.38;12204232;19;20015;-79
2023/04/04 13:27:16;;;;;;;2.63;1.60;;;;;;;19.46;23.68;100601.38;12174757;19;20015;-79
2023/04/04 13:31:18;;;;;;;3.25;1.85;;;;;;;19.65;23.64;100600.72;12201611;19;20354;-79
2023/04/04 13:35:22;;;;;;;3.85;1.88;;;;;;;19.18;23.06;100590.94;12201171;19;20003;-79
2023/04/04 13:39:23;;;;;;;3.97;1.92;;;;;;;18.64;23.84;100587.78;12180419;19;20018;-79
2023/04/04 13:43:27;;;;;;;4.45;1.67;;;;;;;18.87;24.21;100582.72;12195572;19;20010;-80
2023/04/04 13:47:31;;;;;;;3.65;1.55;;;;;;;19.04;23.64;100586.00;12198961;19;20082;-79
2023/04/04 13:51:32;;;;;;;3.63;1.80;;;;;;;19.10;23.25;100578.41;12198786;19;20006;-79
2023/04/04 13:55:35;;;;;;;;;;;;;;;19.48;23.17;100573.97;12199042;19;19999;-79
2023/04/04 13:59:37;;;;;;;4.77;1.80;;;;;;;20.17;21.94;100569.22;12176118;19;20473;-80
2023/04/04 14:03:39;;;;;;;3.45;1.73;;;;;;;20.13;22.13;100564.47;12201930;19;20039;-79
2023/04/04 14:07:43;;;;;;;3.00;1.55;;;;;;;19.80;22.82;100553.88;12202699;19;20035;-79
2023/04/04 14:11:45;;;;;;;4.80;1.60;;;;;;;18.55;23.76;100550.44;12183700;19;20083;-79
2023/04/04 14:15:49;;;;;;;3.13;1.48;;;;;;;17.00;25.25;100559.13;12197023;19;20011;-79
2023/04/04 14:19:51;;;;;;;4.28;1.60;;;;;;;15.58;25.25;100543.28;12201052;19;20030;-79
2023/04/04 14:23:53;;;;;;;3.70;1.80;;;;;;;14.66;26.51;100536.81;12181573;19;20019;-78
2023/04/04 14:27:55;;;;;;;6.00;1.73;;;;;;;14.34;26.96;100531.13;12200374;19;21191;-78
2023/04/04 14:31:57;;;;;;;3.67;1.80;;;;;;;14.22;26.71;100524.84;12225900;19;20011;-79
2023/04/04 14:36:00;;;;;;;3.25;1.55;;;;;;;13.67;27.65;100534.84;12193253;19;20010;-79
2023/04/04 14:40:04;;;;;;;5.38;1.80;;;;;;;12.77;28.17;100529.09;12218420;19;20078;-79
2023/04/04 14:44:08;;;;;;;3.83;1.77;;;;;;;12.74;28.95;100515.78;12221671;19;20498;-78
2023/04/04 14:48:10;;;;;;;3.15;1.35;;;;;;;13.10;29.07;100513.66;12200623;19;20007;-78
2023/04/04 14:52:12;;;;;;;4.32;1.45;;;;;;;13.74;28.54;100518.94;12223302;19;20002;-78
2023/04/04 14:56:14;;;;;;;2.70;1.40;;;;;;;14.89;27.78;100513.50;12225273;19;20011;-78
2023/04/04 15:00:19;;;;;;;3.20;1.85;;;;;;;14.96;27.07;100505.81;12232194;19;20018;-79
2023/04/04 15:04:25;;;;;;;2.28;1.58;;;;;;;14.42;28.17;100502.94;12271008;19;20027;-79
2023/04/04 15:08:26;;;;;;;5.27;2.00;;;;;;;15.01;27.63;100505.84;12241156;19;20053;-79
2023/04/04 15:12:28;;;;;;;4.60;1.83;;;;;;;14.78;27.95;100504.25;12203052;19;20042;-79
2023/04/04 15:16:31;;;;;;;2.85;1.75;;;;;;;14.10;28.08;100500.88;12238320;19;20011;-79
2023/04/04 15:20:37;;;;;;;4.47;2.50;;;;;;;13.58;29.03;100500.38;12207881;19;20014;-78
2023/04/04 15:24:40;;;;;;;3.72;1.42;;;;;;;13.34;28.82;100496.94;12213319;19;20015;-78
2023/04/04 15:28:44;;;;;;;5.88;2.08;;;;;;;13.28;28.85;100498.78;12208513;19;20541;-79
2023/04/04 15:32:49;;;;;;;3.22;1.50;;;;;;;13.21;29.52;100498.94;12195579;19;20006;-79
2023/04/04 15:36:58;;;;;;;2.63;1.60;;;;;;;12.94;29.50;100490.44;12228597;19;20010;-79
2023/04/04 15:41:00;;;;;;;2.55;1.38;;;;;;;13.16;29.72;100490.53;12231668;19;20011;-79
2023/04/04 15:45:02;;;;;;;4.10;1.65;;;;;;;12.85;29.74;100489.16;12202625;19;20735;-79
2023/04/04 15:49:04;;;;;;;4.82;1.70;;;;;;;12.52;29.78;100485.22;12224095;19;20011;-79
2023/04/04 15:53:06;;;;;;;3.13;1.70;;;;;;;12.26;30.72;100481.09;12225944;19;20060;-79
2023/04/04 15:57:08;;;;;;;3.50;1.60;;;;;;;11.96;30.12;100477.69;12195326;19;20557;-79
2023/04/04 16:01:11;;;;;;;4.10;1.67;;;;;;;11.86;31.12;100470.84;12226775;19;20006;-79
2023/04/04 16:05:12;;;;;;;2.92;1.70;;;;;;;11.80;30.89;100465.41;12225171;19;20007;-79
2023/04/04 16:09:14;;;;;;;2.80;1.58;;;;;;;12.22;30.33;100473.53;12208676;19;20036;-78
2023/04/04 16:13:16;;;;;;;2.63;1.40;;;;;;;12.45;30.58;100472.63;12223228;19;20021;-79
2023/04/04 16:17:18;;;;;;;2.80;1.50;;;;;;;12.87;30.95;100475.06;12230382;19;20010;-78
2023/04/04 16:21:22;;;;;;;2.40;1.38;;;;;;;12.62;29.94;100472.69;12239141;19;19999;-79
2023/04/04 16:25:24;;;;;;;2.97;1.70;;;;;;;12.17;30.33;100466.00;12237735;19;20003;-79
2023/04/04 16:29:29;;;;;;;2.70;1.48;;;;;;;11.95;30.52;100454.72;12223822;19;20022;-79
2023/04/04 16:33:34;;;;;;;4.22;1.75;;;;;;;12.34;30.58;100454.16;12199402;19;20388;-79
2023/04/04 16:37:35;;;;;;;4.97;1.65;;;;;;;12.60;29.91;100452.72;12218555;19;20013;-78
2023/04/04 16:41:39;;;;;;;3.60;1.87;;;;;;;12.72;30.91;100459.88;12203170;19;20576;-78
2023/04/04 16:45:41;;;;;;;3.65;1.45;;;;;;;12.58;30.46;100458.50;12219947;19;20019;-79
2023/04/04 16:49:43;;;;;;;3.58;1.75;;;;;;;12.15;30.76;100446.03;12227731;19;20435;-79
2023/04/04 16:53:48;;;;;;;3.15;1.70;;;;;;;11.41;31.47;100449.34;12199088;19;20013;-79
2023/04/04 16:57:51;;;;;;;3.58;1.67;;;;;;;11.09;31.95;100448.84;12220191;19;20376;-79
2023/04/04 17:01:53;;;;;;;4.40;1.45;;;;;;;10.92;32.86;100439.59;12223796;19;20006;-78
2023/04/04 17:05:58;;;;;;;3.72;1.90;;;;;;;10.84;32.75;100439.94;12197739;19;20077;-78
2023/04/04 17:10:01;;;;;;;4.22;1.33;;;;;;;10.81;33.58;100452.28;12219859;19;20013;-79
2023/04/04 17:14:03;;;;;;;4.93;1.90;;;;;;;10.61;33.93;100438.78;12216922;19;20031;-79
2023/04/04 17:18:07;;;;;;;3.85;1.63;;;;;;;10.28;34.05;100450.28;12199300;19;20010;-79
2023/04/04 17:22:09;;;;;;;2.42;1.70;;;;;;;10.08;34.09;100450.50;12217364;19;20014;-79
2023/04/04 17:26:11;;;;;;;3.13;1.55;;;;;;;9.80;34.80;100448.31;12215438;19;20030;-79
2023/04/04 17:30:14;;;;;;;3.60;1.40;;;;;;;10.00;35.16;100454.41;12188709;19;20006;-78
2023/04/04 17:34:17;;;;;;;;;;;;;;;10.20;34.78;100450.56;12213354;19;20432;-78
2023/04/04 17:38:20;;;;;;;6.50;1.98;;;;;;;10.59;34.48;100457.50;12217471;19;19914;-79
2023/04/04 17:42:22;;;;;;;3.45;2.28;;;;;;;10.95;34.33;100453.75;12184917;19;20023;-78
2023/04/04 17:46:24;;;;;;;4.00;1.60;;;;;;;10.99;34.50;100453.28;12201224;19;20017;-78
2023/04/04 17:50:26;;;;;;;4.88;1.70;;;;;;;10.17;36.05;100456.53;12212085;19;20010;-79
2023/04/04 17:54:29;;;;;;;4.35;1.98;;;;;;;9.43;36.42;100459.28;12187156;19;20355;-77
2023/04/04 17:58:31;;;;;;;4.93;2.42;;;;;;;8.81;37.61;100466.59;12206441;19;20726;-79
2023/04/04 18:02:33;;;;;;;2.97;2.20;;;;;;;8.26;39.17;100468.97;12201451;19;20511;-79
2023/04/04 18:06:36;;;;;;;5.30;1.70;;;;;;;7.86;39.90;100466.41;12238265;19;20026;-79
2023/04/04 18:10:41;;;;;;;3.42;1.45;;;;;;;7.46;40.45;100466.47;12235025;19;20007;-78
2023/04/04 18:14:43;;;;;;;4.38;1.73;;;;;;;7.17;41.54;100463.16;12201104;19;20042;-78
2023/04/04 18:18:45;;;;;;;2.40;1.58;;;;;;;6.96;41.93;100474.31;12219027;19;20039;-78
2023/04/04 18:22:52;;;;;;;4.90;2.00;;;;;;;6.75;42.98;100465.25;12219290;19;20499;-78
2023/04/04 18:26:55;;;;;;;4.15;2.38;;;;;;;6.54;44.71;100474.50;12192256;19;20002;-78
2023/04/04 18:30:57;;;;;;;119.28;33.63;;;;;;;6.33;44.18;100478.19;12209000;19;20026;-78
2023/04/04 18:35:00;;;;;;;80.20;25.23;;;;;;;6.18;44.01;100484.88;12210375;19;20007;-78
2023/04/04 18:39:03;;;;;;;66.53;19.15;;;;;;;6.02;44.54;100492.41;12198831;19;20070;-78
2023/04/04 18:43:04;;;;;;;37.77;12.03;;;;;;;5.85;45.33;100491.84;12235339;19;20013;-79
2023/04/04 18:47:07;;;;;;;106.90;35.60;;;;;;;5.67;45.90;100492.38;12233183;19;20013;-79